Portada
METAR-TAF:

METAR-TAF

Aeroports :

Àqaba, Jordània

latitud: 29-38N, longitud: 035-01E, altitud: 53 m

Observació

L'informe es va fer fa 7 minuts, a les 18:00 UTC
Vent 8 kt del Nord
Temperatura 30°C
Humitat 19%
Pressió 1009 hPa
Visibilitat 10 km o més
sense núvols per sota de 1500 mi sense presència de cumulonimbus.

METAR: OJAQ 231800Z 36008KT CAVOK 30/04 Q1009 NOSIG

Hora: 21:07 (18:07 UTC)

Pronòstic

L'informe es va fer fa 1 hora i 15 minuts, a les 16:52 UTC
Pronòstic vàlid del 23 a les 18 UTC al 24 a les 24 UTC
Vent 8 kt del Nord
Visibilitat 10 km o més
sense núvols per sota de 1500 mi sense presència de cumulonimbus.

TAF: OJAQ 231652Z 2318/2424 36008KT CAVOK

Observacions i pronòstics meteorològics de més de 4000 aeroports (METAR i TAF).

Les estacions disponibles són els punts grocs i vermells al mapa.

Posi el ratolí al punt desitjat per veure el nom de l'estació.

Feu clic per veure les observacions i els pronòstics meteorològics.

Per canviar el mapa: feu clic els botons verds amb una creu de color negre per apropar; al botó verd amb un guió per allunyar la imatge; o en les fletxes verdes per a mapes adjacents.


METAR-TAF: